createdAt,value
2019-05-05T00:01:57.699Z,49.95
2019-05-05T00:05:01.680Z,49.89
2019-05-05T00:07:35.987Z,50.20
2019-05-05T00:10:10.244Z,49.86
2019-05-05T00:12:58.054Z,50.37
2019-05-05T00:16:06.727Z,50.55
2019-05-05T00:18:37.940Z,50.22
2019-05-05T00:21:09.688Z,50.07
2019-05-05T00:23:45.110Z,49.99
2019-05-05T00:26:16.424Z,50.07
2019-05-05T00:28:47.348Z,50.17
2019-05-05T00:31:18.202Z,50.04
2019-05-05T00:33:48.703Z,50.06
2019-05-05T00:36:19.674Z,50.27
2019-05-05T00:38:51.494Z,49.96
2019-05-05T00:41:25.187Z,49.81
2019-05-05T00:43:58.140Z,50.06
2019-05-05T00:46:51.537Z,50.28
2019-05-05T00:49:21.720Z,50.48
2019-05-05T00:51:51.875Z,50.04
2019-05-05T00:54:24.279Z,50.52
2019-05-05T00:56:55.677Z,50.02
2019-05-05T00:59:35.514Z,50.28
2019-05-05T01:02:34.434Z,50.17
2019-05-05T01:05:25.360Z,50.48
2019-05-05T01:07:56.838Z,49.69
2019-05-05T01:10:27.440Z,50.04
2019-05-05T01:12:57.609Z,49.81
2019-05-05T01:15:27.908Z,49.99
2019-05-05T01:17:58.598Z,50.66
2019-05-05T01:20:29.217Z,50.54
2019-05-05T01:23:00.731Z,53.12
2019-05-05T01:25:32.140Z,51.18
2019-05-05T01:28:04.861Z,49.92
2019-05-05T01:30:36.874Z,49.21
2019-05-05T01:33:14.602Z,49.27
2019-05-05T01:35:46.641Z,49.36
2019-05-05T01:38:44.668Z,48.72
2019-05-05T01:41:30.792Z,48.98
2019-05-05T01:44:04.864Z,49.51
2019-05-05T01:46:35.590Z,49.14
2019-05-05T01:49:06.698Z,49.32
2019-05-05T01:51:39.554Z,49.66
2019-05-05T01:54:10.019Z,49.26
2019-05-05T01:56:41.122Z,49.44
2019-05-05T01:59:11.820Z,49.20
2019-05-05T02:01:44.554Z,49.60
2019-05-05T02:04:15.937Z,49.06
2019-05-05T02:06:54.966Z,49.40
2019-05-05T02:09:26.582Z,49.47
2019-05-05T02:11:57.559Z,49.24
2019-05-05T02:14:28.208Z,49.35
2019-05-05T02:16:58.889Z,48.94
2019-05-05T02:19:31.066Z,49.65
2019-05-05T02:22:02.587Z,49.51
2019-05-05T02:24:35.332Z,49.56
2019-05-05T02:27:06.544Z,49.40
2019-05-05T02:30:07.110Z,49.33
2019-05-05T02:32:55.491Z,49.55
2019-05-05T02:35:25.905Z,49.44
2019-05-05T02:37:56.589Z,49.52
2019-05-05T02:40:28.124Z,49.72
2019-05-05T02:42:58.430Z,49.38
2019-05-05T02:45:46.839Z,49.66
2019-05-05T02:48:19.031Z,50.26
2019-05-05T02:51:01.213Z,49.10
2019-05-05T02:53:38.008Z,49.77
2019-05-05T02:56:16.644Z,49.55
2019-05-05T02:58:53.696Z,49.52
2019-05-05T03:01:35.861Z,49.76
2019-05-05T03:04:07.612Z,50.03
2019-05-05T03:06:43.716Z,49.92
2019-05-05T03:09:18.099Z,49.88
2019-05-05T03:11:50.034Z,49.57
2019-05-05T03:14:23.699Z,49.83
2019-05-05T03:16:54.466Z,50.11
2019-05-05T03:19:26.589Z,49.98
2019-05-05T03:21:58.063Z,50.05
2019-05-05T03:24:30.083Z,49.61
2019-05-05T03:27:03.806Z,49.66
2019-05-05T03:29:35.991Z,49.98
2019-05-05T03:32:11.276Z,50.23
2019-05-05T03:34:40.039Z,49.54
2019-05-05T03:37:10.863Z,50.16
2019-05-05T03:39:44.772Z,50.04
2019-05-05T03:42:25.636Z,49.99
2019-05-05T03:45:14.707Z,49.71
2019-05-05T03:47:47.189Z,49.51
2019-05-05T03:50:18.159Z,50.31
2019-05-05T03:52:50.746Z,50.35
2019-05-05T03:55:24.153Z,49.90
2019-05-05T03:57:57.896Z,49.45
2019-05-05T04:01:19.121Z,49.84
2019-05-05T04:03:51.680Z,49.66
2019-05-05T04:06:38.273Z,49.51
2019-05-05T04:09:11.337Z,49.47
2019-05-05T04:11:44.378Z,49.48
2019-05-05T04:14:19.052Z,49.63
2019-05-05T04:16:57.482Z,49.49
2019-05-05T04:19:29.416Z,49.05
2019-05-05T04:22:00.692Z,48.96
2019-05-05T04:24:34.133Z,48.43
2019-05-05T04:27:06.028Z,49.18
2019-05-05T04:29:36.204Z,49.63
2019-05-05T04:32:06.373Z,49.23
2019-05-05T04:34:36.952Z,49.27
2019-05-05T04:37:08.557Z,49.09
2019-05-05T04:39:39.225Z,49.01
2019-05-05T04:42:09.375Z,48.72
2019-05-05T04:44:41.467Z,49.07
2019-05-05T04:47:17.581Z,48.81
2019-05-05T04:50:09.965Z,48.82
2019-05-05T04:52:43.318Z,48.51
2019-05-05T04:55:13.915Z,49.49
2019-05-05T04:57:44.574Z,48.86
2019-05-05T05:00:16.488Z,48.93
2019-05-05T05:03:14.574Z,48.39
2019-05-05T05:06:04.230Z,47.84
2019-05-05T05:08:35.108Z,48.46
2019-05-05T05:11:06.479Z,48.51
2019-05-05T05:13:36.927Z,48.18
2019-05-05T05:16:11.040Z,48.28
2019-05-05T05:18:41.309Z,48.07
2019-05-05T05:21:12.045Z,48.50
2019-05-05T05:23:44.362Z,47.76
2019-05-05T05:26:15.841Z,48.16
2019-05-05T05:28:47.256Z,47.95
2019-05-05T05:31:19.897Z,48.22
2019-05-05T05:33:50.883Z,47.87
2019-05-05T05:36:21.838Z,48.19
2019-05-05T05:38:54.288Z,47.76
2019-05-05T05:41:46.729Z,48.47
2019-05-05T05:44:54.119Z,48.49
2019-05-05T05:47:48.090Z,48.60
2019-05-05T05:50:25.687Z,47.47
2019-05-05T05:52:56.125Z,47.93
2019-05-05T05:55:26.799Z,47.66
2019-05-05T05:57:57.632Z,47.97
2019-05-05T06:00:28.563Z,48.20
2019-05-05T06:03:03.895Z,48.25
2019-05-05T06:05:35.282Z,47.82
2019-05-05T06:08:06.017Z,48.04
2019-05-05T06:10:37.553Z,47.63
2019-05-05T06:13:09.092Z,46.40
2019-05-05T06:15:39.506Z,47.59
2019-05-05T06:18:11.033Z,47.13
2019-05-05T06:20:44.540Z,46.99
2019-05-05T06:23:14.916Z,46.34
2019-05-05T06:25:45.369Z,45.73
2019-05-05T06:28:16.235Z,46.00
2019-05-05T06:30:47.197Z,45.11
2019-05-05T06:33:20.418Z,46.10
2019-05-05T06:35:51.154Z,45.60
2019-05-05T06:38:24.170Z,46.21
2019-05-05T06:41:08.487Z,46.49
2019-05-05T06:44:03.579Z,46.39
2019-05-05T06:46:53.759Z,46.92
2019-05-05T06:49:26.020Z,47.09
2019-05-05T06:51:56.543Z,46.46
2019-05-05T06:54:26.810Z,46.43
2019-05-05T06:56:58.602Z,46.65
2019-05-05T06:59:29.915Z,46.98
2019-05-05T07:02:00.963Z,46.33
2019-05-05T07:04:33.789Z,46.43
2019-05-05T07:07:05.160Z,45.97
2019-05-05T07:09:36.670Z,45.76
2019-05-05T07:12:07.760Z,45.98
2019-05-05T07:14:37.915Z,46.32
2019-05-05T07:17:08.077Z,46.31
2019-05-05T07:19:38.881Z,46.60
2019-05-05T07:22:09.029Z,46.75
2019-05-05T07:24:43.518Z,46.91
2019-05-05T07:27:13.984Z,46.82
2019-05-05T07:29:45.434Z,46.83
2019-05-05T07:32:17.130Z,47.27
2019-05-05T07:35:07.159Z,46.94
2019-05-05T07:37:38.438Z,46.93
2019-05-05T07:40:30.210Z,46.22
2019-05-05T07:43:04.352Z,47.23
2019-05-05T07:45:45.039Z,47.16
2019-05-05T07:48:25.251Z,46.41
2019-05-05T07:51:04.459Z,46.54
2019-05-05T07:53:45.270Z,46.15
2019-05-05T07:56:18.646Z,45.77
2019-05-05T07:59:05.741Z,45.91
2019-05-05T08:01:45.860Z,46.18
2019-05-05T08:04:18.205Z,45.39
2019-05-05T08:06:57.224Z,45.19
2019-05-05T08:09:39.173Z,44.88
2019-05-05T08:12:34.252Z,45.02
2019-05-05T08:18:00.233Z,44.00
2019-05-05T08:20:35.638Z,43.36
2019-05-05T08:23:28.623Z,44.35
2019-05-05T08:25:59.673Z,44.26
2019-05-05T08:28:49.090Z,44.31
2019-05-05T08:31:48.993Z,43.91
2019-05-05T08:34:25.727Z,43.88
2019-05-05T08:36:59.985Z,42.79
2019-05-05T08:39:35.561Z,44.23
2019-05-05T08:42:14.448Z,42.72
2019-05-05T08:44:46.695Z,41.99
2019-05-05T08:47:18.870Z,41.73
2019-05-05T08:49:53.609Z,42.08
2019-05-05T08:52:24.651Z,41.80
2019-05-05T08:54:58.687Z,40.30
2019-05-05T08:57:31.289Z,40.37
2019-05-05T09:00:07.037Z,39.87
2019-05-05T09:02:38.790Z,39.97
2019-05-05T09:05:14.594Z,39.10
2019-05-05T09:07:49.186Z,38.96
2019-05-05T09:10:23.689Z,39.62
2019-05-05T09:12:56.613Z,39.30
2019-05-05T09:15:30.844Z,39.79
2019-05-05T09:18:05.127Z,39.25
2019-05-05T09:20:38.796Z,37.71
2019-05-05T09:23:14.578Z,38.21
2019-05-05T09:26:10.974Z,37.58
2019-05-05T09:29:09.935Z,37.65
2019-05-05T09:31:45.060Z,36.34
2019-05-05T09:34:19.237Z,35.13
2019-05-05T09:36:54.428Z,35.20
2019-05-05T09:39:28.916Z,36.46
2019-05-05T09:42:00.580Z,38.31
2019-05-05T09:44:31.616Z,40.08
2019-05-05T09:47:05.428Z,41.26
2019-05-05T09:49:37.533Z,42.21
2019-05-05T09:52:11.149Z,41.70
2019-05-05T09:54:44.333Z,41.77
2019-05-05T09:57:20.843Z,41.77
2019-05-05T09:59:54.487Z,42.16
2019-05-05T10:02:27.917Z,41.30
2019-05-05T10:05:01.133Z,41.27
2019-05-05T10:07:36.838Z,40.62
2019-05-05T10:10:11.174Z,41.05
2019-05-05T10:12:57.144Z,38.46
2019-05-05T10:15:33.789Z,37.44
2019-05-05T10:18:14.187Z,37.38
2019-05-05T10:21:01.907Z,35.76
2019-05-05T10:23:39.799Z,35.16
2019-05-05T10:26:11.970Z,36.71
2019-05-05T10:28:45.443Z,38.35
2019-05-05T10:31:21.303Z,37.11
2019-05-05T10:33:58.441Z,38.77
2019-05-05T10:36:33.755Z,38.33
2019-05-05T10:39:14.502Z,39.02
2019-05-05T10:41:54.694Z,39.83
2019-05-05T10:44:26.875Z,41.51
2019-05-05T10:47:01.647Z,42.37
2019-05-05T10:49:37.468Z,41.96
2019-05-05T10:52:10.770Z,42.52
2019-05-05T10:54:45.188Z,42.48
2019-05-05T10:57:28.384Z,42.41
2019-05-05T11:00:11.675Z,40.51
2019-05-05T11:02:38.907Z,40.21
2019-05-05T11:05:17.030Z,39.92
2019-05-05T11:07:53.658Z,38.76
2019-05-05T11:10:36.997Z,39.50
2019-05-05T11:13:14.262Z,36.08
2019-05-05T11:15:48.078Z,37.24
2019-05-05T11:18:20.831Z,37.33
2019-05-05T11:20:54.837Z,33.65
2019-05-05T11:23:29.315Z,35.14
2019-05-05T11:26:01.050Z,34.79
2019-05-05T11:28:33.892Z,32.53
2019-05-05T11:31:05.267Z,32.28
2019-05-05T11:33:49.009Z,33.07
2019-05-05T11:36:34.565Z,33.67
2019-05-05T11:39:08.605Z,29.87
2019-05-05T11:41:39.029Z,28.84
2019-05-05T11:44:09.760Z,28.12
2019-05-05T11:46:41.564Z,28.63
2019-05-05T11:49:13.943Z,26.95
2019-05-05T11:51:45.423Z,27.34
2019-05-05T11:54:17.719Z,28.65
2019-05-05T11:56:48.834Z,28.65
2019-05-05T11:59:19.046Z,28.27
2019-05-05T12:01:50.878Z,29.58
2019-05-05T12:04:24.132Z,30.12
2019-05-05T12:06:55.830Z,29.60
2019-05-05T12:09:39.902Z,28.29
2019-05-05T12:12:11.578Z,29.63
2019-05-05T12:14:44.456Z,32.56
2019-05-05T12:17:17.815Z,33.40
2019-05-05T12:19:51.401Z,32.53
2019-05-05T12:22:23.618Z,32.23
2019-05-05T12:24:54.790Z,32.20
2019-05-05T12:27:30.547Z,34.70
2019-05-05T12:30:06.018Z,33.89
2019-05-05T12:32:36.553Z,33.15
2019-05-05T12:35:08.044Z,33.63
2019-05-05T12:37:40.159Z,34.63
2019-05-05T12:40:11.592Z,32.58
2019-05-05T12:42:44.026Z,31.85
2019-05-05T12:45:23.971Z,27.77
2019-05-05T12:48:15.226Z,28.69
2019-05-05T12:50:47.149Z,28.76
2019-05-05T12:53:19.918Z,27.41
2019-05-05T12:55:53.803Z,26.97
2019-05-05T12:58:24.884Z,24.69
2019-05-05T13:01:20.587Z,27.17
2019-05-05T13:03:54.273Z,27.17
2019-05-05T13:06:26.105Z,25.52
2019-05-05T13:08:59.106Z,27.37
2019-05-05T13:11:34.327Z,26.91
2019-05-05T13:14:07.260Z,26.10
2019-05-05T13:16:50.588Z,25.97
2019-05-05T13:19:25.153Z,25.33
2019-05-05T13:22:26.318Z,24.78
2019-05-05T13:25:06.594Z,25.05
2019-05-05T13:27:40.536Z,26.41
2019-05-05T13:30:11.856Z,27.24
2019-05-05T13:32:44.089Z,26.28
2019-05-05T13:35:17.376Z,27.39
2019-05-05T13:37:49.029Z,26.68
2019-05-05T13:40:24.050Z,27.64
2019-05-05T13:42:55.679Z,27.26
2019-05-05T13:45:43.595Z,26.22
2019-05-05T13:48:17.412Z,25.05
2019-05-05T13:50:51.362Z,24.09
2019-05-05T13:53:23.796Z,24.00
2019-05-05T13:56:08.184Z,21.92
2019-05-05T13:58:28.466Z,20.95
2019-05-05T14:00:59.089Z,20.52
2019-05-05T14:03:29.924Z,19.51
2019-05-05T14:06:00.389Z,18.00
2019-05-05T14:08:35.577Z,17.70
2019-05-05T14:11:06.264Z,18.31
2019-05-05T14:13:39.883Z,17.76
2019-05-05T14:16:17.186Z,17.21
2019-05-05T14:18:50.363Z,16.53
2019-05-05T14:21:20.589Z,15.54
2019-05-05T14:24:29.470Z,15.58
2019-05-05T14:27:00.681Z,15.45
2019-05-05T14:30:03.901Z,14.37
2019-05-05T14:32:38.511Z,14.53
2019-05-05T14:35:31.623Z,14.15
2019-05-05T14:38:06.848Z,14.00
2019-05-05T14:40:38.623Z,14.74
2019-05-05T14:43:13.295Z,16.80
2019-05-05T14:45:44.372Z,17.91
2019-05-05T14:48:16.743Z,18.79
2019-05-05T14:50:51.915Z,19.94
2019-05-05T14:53:24.517Z,19.91
2019-05-05T14:55:57.564Z,22.61
2019-05-05T14:58:31.383Z,22.05
2019-05-05T15:01:04.447Z,22.64
2019-05-05T15:03:34.774Z,24.19
2019-05-05T15:06:15.379Z,24.23
2019-05-05T15:09:05.484Z,25.10
2019-05-05T15:11:53.840Z,26.39
2019-05-05T15:14:25.368Z,25.24
2019-05-05T15:16:56.993Z,23.61
2019-05-05T15:19:33.995Z,22.90
2019-05-05T15:22:06.252Z,22.51
2019-05-05T15:24:38.105Z,22.44
2019-05-05T15:27:10.363Z,22.50
2019-05-05T15:29:43.734Z,22.68
2019-05-05T15:32:17.624Z,23.10
2019-05-05T15:34:49.048Z,23.47
2019-05-05T15:37:21.038Z,22.59
2019-05-05T15:39:53.406Z,23.25
2019-05-05T15:42:24.624Z,24.88
2019-05-05T15:44:57.349Z,24.41
2019-05-05T15:47:30.884Z,24.51
2019-05-05T15:50:01.546Z,25.61
2019-05-05T15:52:35.271Z,24.75
2019-05-05T15:55:13.999Z,25.38
2019-05-05T15:57:45.898Z,26.35
2019-05-05T16:00:19.299Z,26.19
2019-05-05T16:02:51.177Z,25.72
2019-05-05T16:05:25.009Z,25.25
2019-05-05T16:07:56.212Z,25.83
2019-05-05T16:10:27.017Z,25.76
2019-05-05T16:12:58.136Z,27.17
2019-05-05T16:15:53.538Z,28.27
2019-05-05T16:18:48.409Z,28.71
2019-05-05T16:21:49.920Z,28.53
2019-05-05T16:24:24.681Z,29.38
2019-05-05T16:26:57.314Z,30.53
2019-05-05T16:29:29.739Z,30.17
2019-05-05T16:32:05.430Z,29.85
2019-05-05T16:34:35.654Z,30.08
2019-05-05T16:37:09.292Z,29.27
2019-05-05T16:39:39.848Z,28.80
2019-05-05T16:42:13.560Z,27.84
2019-05-05T16:44:46.995Z,27.36
2019-05-05T16:47:21.535Z,28.12
2019-05-05T16:49:53.808Z,27.39
2019-05-05T16:52:36.892Z,26.80
2019-05-05T16:55:40.510Z,26.98
2019-05-05T16:58:14.037Z,27.25
2019-05-05T17:00:47.562Z,27.21
2019-05-05T17:03:21.628Z,27.55
2019-05-05T17:05:54.660Z,27.66
2019-05-05T17:08:28.791Z,27.25
2019-05-05T17:10:59.844Z,28.20
2019-05-05T17:13:54.885Z,27.99
2019-05-05T17:16:51.135Z,27.84
2019-05-05T17:19:34.736Z,27.95
2019-05-05T17:22:22.984Z,27.59
2019-05-05T17:24:53.597Z,28.32
2019-05-05T17:27:29.178Z,28.45
2019-05-05T17:30:01.041Z,29.16
2019-05-05T17:32:43.628Z,29.56
2019-05-05T17:35:16.549Z,29.51
2019-05-05T17:37:53.723Z,30.02
2019-05-05T17:40:54.481Z,30.54
2019-05-05T17:43:40.084Z,30.52
2019-05-05T17:46:33.698Z,30.49
2019-05-05T17:49:26.863Z,30.96
2019-05-05T17:52:04.558Z,31.06
2019-05-05T17:54:44.518Z,31.34
2019-05-05T17:57:14.926Z,31.42
2019-05-05T17:59:47.021Z,31.80
2019-05-05T18:02:17.893Z,31.56
2019-05-05T18:04:49.074Z,31.95
2019-05-05T18:07:40.692Z,32.62
2019-05-05T18:10:34.431Z,33.09
2019-05-05T18:13:25.291Z,32.84
2019-05-05T18:16:04.925Z,33.33
2019-05-05T18:19:04.545Z,34.12
2019-05-05T18:22:08.162Z,33.88
2019-05-05T18:24:42.104Z,33.38
2019-05-05T18:27:52.026Z,33.73
2019-05-05T18:30:26.779Z,33.64
2019-05-05T18:32:59.263Z,34.25
2019-05-05T18:35:31.401Z,34.57
2019-05-05T18:38:06.868Z,34.81
2019-05-05T18:40:37.560Z,35.35
2019-05-05T18:43:14.825Z,35.18
2019-05-05T18:45:45.429Z,34.80
2019-05-05T18:48:20.805Z,35.53
2019-05-05T18:50:54.156Z,35.21
2019-05-05T18:53:27.182Z,35.92
2019-05-05T18:56:09.386Z,35.70
2019-05-05T18:58:40.585Z,36.16
2019-05-05T19:01:41.943Z,36.45
2019-05-05T19:04:48.675Z,36.15
2019-05-05T19:07:54.409Z,36.76
2019-05-05T19:10:18.084Z,36.41
2019-05-05T19:12:53.948Z,36.05
2019-05-05T19:15:29.606Z,35.70
2019-05-05T19:18:04.064Z,36.72
2019-05-05T19:21:14.200Z,35.81
2019-05-05T19:23:45.034Z,36.28
2019-05-05T19:26:19.644Z,35.09
2019-05-05T19:29:04.412Z,36.79
2019-05-05T19:31:36.589Z,35.91
2019-05-05T19:34:14.458Z,36.06
2019-05-05T19:36:47.862Z,36.12
2019-05-05T19:39:19.235Z,36.44
2019-05-05T19:42:09.534Z,36.12
2019-05-05T19:44:45.721Z,37.00
2019-05-05T19:47:24.630Z,37.57
2019-05-05T19:50:21.624Z,37.45
2019-05-05T19:52:53.876Z,37.54
2019-05-05T19:55:26.525Z,37.22
2019-05-05T19:57:57.552Z,37.28
2019-05-05T20:00:30.694Z,37.19
2019-05-05T20:03:09.101Z,37.37
2019-05-05T20:05:43.116Z,37.26
2019-05-05T20:08:19.974Z,37.73
2019-05-05T20:10:54.176Z,37.97
2019-05-05T20:13:27.324Z,37.63
2019-05-05T20:16:24.840Z,38.03
2019-05-05T20:19:05.307Z,37.43
2019-05-05T20:21:36.983Z,37.34
2019-05-05T20:24:10.555Z,37.78
2019-05-05T20:26:42.812Z,37.87
2019-05-05T20:29:17.164Z,37.72
2019-05-05T20:31:49.766Z,37.27
2019-05-05T20:34:29.299Z,37.21
2019-05-05T20:37:18.422Z,37.62
2019-05-05T20:39:50.686Z,37.40
2019-05-05T20:42:22.215Z,37.47
2019-05-05T20:45:07.332Z,37.93
2019-05-05T20:47:43.986Z,37.64
2019-05-05T20:50:17.525Z,37.98
2019-05-05T20:52:54.340Z,37.92
2019-05-05T20:55:38.610Z,37.70
2019-05-05T20:58:13.979Z,36.68
2019-05-05T21:00:51.677Z,37.86
2019-05-05T21:03:29.865Z,38.16
2019-05-05T21:06:04.322Z,38.25
2019-05-05T21:08:39.602Z,38.15
2019-05-05T21:11:10.325Z,38.18
2019-05-05T21:13:51.538Z,38.52
2019-05-05T21:16:38.904Z,38.73
2019-05-05T21:19:16.925Z,39.23
2019-05-05T21:21:54.436Z,39.06
2019-05-05T21:24:27.637Z,39.47
2019-05-05T21:26:59.942Z,39.57
2019-05-05T21:29:39.611Z,39.29
2019-05-05T21:32:04.697Z,39.43
2019-05-05T21:34:36.243Z,39.62
2019-05-05T21:37:08.996Z,39.96
2019-05-05T21:39:39.540Z,40.20
2019-05-05T21:42:13.900Z,40.10
2019-05-05T21:44:46.179Z,40.16
2019-05-05T21:47:17.210Z,40.33
2019-05-05T21:49:54.228Z,40.43
2019-05-05T21:52:47.562Z,40.69
2019-05-05T21:55:24.438Z,40.20
2019-05-05T21:58:15.560Z,40.37
2019-05-05T22:01:07.652Z,40.67
2019-05-05T22:03:41.034Z,40.87
2019-05-05T22:06:16.657Z,40.71
2019-05-05T22:08:50.737Z,40.72
2019-05-05T22:11:24.096Z,40.96
2019-05-05T22:13:57.686Z,40.88
2019-05-05T22:16:35.281Z,40.82
2019-05-05T22:19:06.558Z,41.03
2019-05-05T22:21:49.254Z,41.52
2019-05-05T22:24:23.704Z,41.09
2019-05-05T22:26:56.962Z,40.72
2019-05-05T22:29:29.711Z,41.29
2019-05-05T22:32:01.203Z,41.04
2019-05-05T22:34:34.713Z,41.24
2019-05-05T22:37:09.743Z,41.25
2019-05-05T22:39:44.376Z,41.54
2019-05-05T22:42:15.761Z,41.33
2019-05-05T22:44:47.334Z,41.31
2019-05-05T22:47:19.633Z,41.59
2019-05-05T22:49:57.754Z,41.47
2019-05-05T22:52:31.738Z,41.58
2019-05-05T22:55:04.568Z,41.73
2019-05-05T22:57:36.627Z,41.92
2019-05-05T23:00:23.797Z,41.78
2019-05-05T23:02:50.008Z,42.36
2019-05-05T23:05:50.734Z,42.05
2019-05-05T23:08:24.417Z,42.32
2019-05-05T23:10:59.589Z,42.38
2019-05-05T23:13:33.747Z,41.99
2019-05-05T23:16:14.991Z,42.46
2019-05-05T23:18:46.899Z,42.66
2019-05-05T23:21:34.169Z,42.62
2019-05-05T23:24:26.296Z,42.89
2019-05-05T23:26:57.666Z,42.50
2019-05-05T23:29:29.968Z,42.54
2019-05-05T23:32:02.829Z,42.46
2019-05-05T23:34:36.494Z,42.66
2019-05-05T23:37:08.423Z,43.04
2019-05-05T23:39:42.108Z,43.00
2019-05-05T23:42:19.876Z,42.82
2019-05-05T23:44:55.511Z,42.69
2019-05-05T23:47:27.819Z,42.55
2019-05-05T23:50:01.145Z,42.83
2019-05-05T23:52:37.058Z,42.85
2019-05-05T23:55:08.843Z,43.11
2019-05-05T23:57:44.275Z,42.85
